Time;durP1;ratioP1;P1;durP2;ratioP2;P2;SDS_P1;SDS_P2;PMS_P1;PMS_P2;Temp;Humidity;BMP_temperature;BMP_pressure;BME280_temperature;BME280_humidity;BME280_pressure;Samples;Min_cycle;Max_cycle;Signal;HPM_P1;HPM_P2
2022/09/24 00:01:52;;;;;;;10.40;9.40;;;13.70;94.00;;;;;;5139600;27;20182;-48
2022/09/24 00:04:18;;;;;;;10.00;9.10;;;13.60;94.00;;;;;;5138189;27;20518;-44
2022/09/24 00:06:45;;;;;;;10.23;9.20;;;13.70;94.10;;;;;;5136492;27;20186;-44
2022/09/24 00:09:13;;;;;;;9.20;8.40;;;13.70;94.20;;;;;;5135096;27;20221;-47
2022/09/24 00:11:39;;;;;;;9.53;8.53;;;13.60;94.20;;;;;;5135384;27;20492;-47
2022/09/24 00:14:05;;;;;;;10.60;9.60;;;13.60;94.20;;;;;;5136271;27;20412;-45
2022/09/24 00:16:32;;;;;;;10.07;9.03;;;13.60;94.20;;;;;;5135374;27;20680;-43
2022/09/24 00:18:58;;;;;;;9.60;8.80;;;13.60;94.20;;;;;;5136626;27;20801;-47
2022/09/24 00:21:34;;;;;;;10.00;9.10;;;13.60;94.30;;;;;;5118492;27;20416;-46
2022/09/24 00:24:08;;;;;;;9.90;9.10;;;13.60;94.30;;;;;;5138145;27;20411;-45
2022/09/24 00:26:49;;;;;;;8.20;7.53;;;13.60;94.30;;;;;;5138254;27;20421;-45
2022/09/24 00:29:20;;;;;;;9.87;8.83;;;13.60;94.30;;;;;;5138840;27;20465;-45
2022/09/24 00:31:47;;;;;;;9.47;8.57;;;13.60;94.40;;;;;;5139105;27;20454;-44
2022/09/24 00:34:13;;;;;;;9.17;8.30;;;13.50;94.40;;;;;;5138931;27;20464;-45
2022/09/24 00:36:38;;;;;;;10.13;9.23;;;13.50;94.40;;;;;;5139442;27;20421;-45
2022/09/24 00:39:04;;;;;;;9.60;8.77;;;13.50;94.70;;;;;;5137908;27;20550;-46
2022/09/24 00:41:33;;;;;;;9.47;8.50;;;13.50;94.50;;;;;;5138044;27;20179;-46
2022/09/24 00:43:59;;;;;;;9.90;8.97;;;13.50;94.50;;;;;;5119979;27;20478;-45
2022/09/24 00:46:39;;;;;;;8.90;8.20;;;13.40;94.50;;;;;;5138729;27;20732;-44
2022/09/24 00:49:11;;;;;;;10.20;9.20;;;13.40;94.50;;;;;;5119577;27;20739;-44
2022/09/24 00:51:37;;;;;;;9.97;8.80;;;13.40;94.50;;;;;;5118435;27;20714;-45
2022/09/24 00:54:05;;;;;;;9.73;8.70;;;13.40;94.50;;;;;;5135165;27;20417;-45
2022/09/24 00:56:35;;;;;;;9.63;8.63;;;13.40;94.80;;;;;;5116954;27;20474;-45
2022/09/24 00:59:01;;;;;;;9.07;8.23;;;13.40;94.60;;;;;;5135138;27;20411;-47
2022/09/24 01:01:28;;;;;;;9.33;8.40;;;13.30;94.60;;;;;;5116284;27;20433;-45
2022/09/24 01:03:55;;;;;;;8.43;7.70;;;13.30;94.60;;;;;;5117496;27;20448;-46
2022/09/24 01:06:21;;;;;;;8.47;7.57;;;13.30;94.60;;;;;;5117303;27;20466;-46
2022/09/24 01:08:47;;;;;;;9.17;8.23;;;13.30;94.70;;;;;;5135444;27;20467;-44
2022/09/24 01:11:18;;;;;;;9.20;8.30;;;13.20;94.60;;;;;;5135977;27;20714;-46
2022/09/24 01:13:58;;;;;;;8.97;8.17;;;13.20;94.70;;;;;;5134586;28;20211;-44
2022/09/24 01:16:42;;;;;;;9.27;8.47;;;13.20;94.70;;;;;;5134720;28;20428;-45
2022/09/24 01:19:25;;;;;;;11.17;8.63;;;13.10;94.60;;;;;;5135098;28;20417;-46
2022/09/24 01:21:55;;;;;;;8.17;7.47;;;13.10;94.60;;;;;;5118105;28;20486;-44
2022/09/24 01:24:50;;;;;;;8.60;7.80;;;13.10;94.70;;;;;;5134966;28;21046;-44
2022/09/24 01:27:29;;;;;;;9.00;8.10;;;13.00;94.70;;;;;;5137015;28;20690;-45
2022/09/24 01:30:10;;;;;;;8.70;8.00;;;13.00;94.70;;;;;;5137504;28;20492;-45
2022/09/24 01:32:54;;;;;;;9.20;8.40;;;13.00;94.70;;;;;;5118830;28;20417;-43
2022/09/24 01:35:38;;;;;;;8.70;8.00;;;12.90;94.70;;;;;;5120149;28;20436;-45
2022/09/24 01:38:08;;;;;;;9.37;8.37;;;12.90;94.70;;;;;;5119246;28;20417;-46
2022/09/24 01:40:35;;;;;;;8.00;7.30;;;12.90;94.80;;;;;;5136499;28;20445;-44
2022/09/24 01:43:03;;;;;;;9.97;8.97;;;12.80;94.70;;;;;;5117173;28;20424;-44
2022/09/24 01:45:29;;;;;;;8.53;7.83;;;12.80;94.80;;;;;;5116422;28;20453;-44
2022/09/24 01:47:56;;;;;;;9.23;8.40;;;12.80;94.90;;;;;;5117550;28;20573;-44
2022/09/24 01:50:23;;;;;;;9.70;8.80;;;12.80;94.90;;;;;;5135240;28;20418;-47
2022/09/24 01:53:02;;;;;;;8.93;8.03;;;12.70;94.80;;;;;;5118680;28;20434;-43
2022/09/24 01:55:31;;;;;;;9.43;8.63;;;12.70;94.80;;;;;;5118331;28;20551;-45
2022/09/24 01:58:07;;;;;;;8.87;8.07;;;12.70;94.80;;;;;;5137149;28;20433;-46
2022/09/24 02:00:36;;;;;;;8.53;7.70;;;12.60;94.80;;;;;;5120321;27;20430;-47
2022/09/24 02:03:10;;;;;;;8.83;8.03;;;12.60;94.90;;;;;;5141218;27;20709;-45
2022/09/24 02:05:43;;;;;;;9.93;9.03;;;12.50;94.80;;;;;;5141604;27;20475;-44
2022/09/24 02:08:13;;;;;;;9.30;8.40;;;12.50;94.80;;;;;;5141901;27;20716;-44
2022/09/24 02:10:54;;;;;;;9.40;8.60;;;12.50;94.90;;;;;;5123262;27;20435;-43
2022/09/24 02:13:23;;;;;;;8.20;7.50;;;12.50;94.90;;;;;;5123044;27;20786;-47
2022/09/24 02:15:50;;;;;;;8.87;7.97;;;12.50;94.90;;;;;;5123815;27;20428;-44
2022/09/24 02:18:19;;;;;;;9.30;8.50;;;12.50;95.00;;;;;;5141534;27;20440;-47
2022/09/24 02:20:46;;;;;;;8.47;7.77;;;12.50;95.00;;;;;;5122197;27;20457;-50
2022/09/24 02:23:14;;;;;;;9.17;8.37;;;12.40;95.00;;;;;;5123041;27;20500;-48
2022/09/24 02:25:46;;;;;;;9.93;9.03;;;12.40;95.10;;;;;;5123423;27;20544;-43
2022/09/24 02:28:11;;;;;;;9.20;8.30;;;12.40;95.10;;;;;;5141077;27;20470;-45
2022/09/24 02:30:40;;;;;;;9.67;8.77;;;12.40;95.20;;;;;;5139894;27;20852;-44
2022/09/24 02:34:19;;;;;;;8.30;7.60;;;12.40;95.20;;;;;;5121309;27;20429;-45
2022/09/24 02:35:56;;;;;;;9.10;8.30;;;12.40;95.30;;;;;;5123487;27;20848;-46
2022/09/24 02:38:22;;;;;;;9.33;8.40;;;12.40;95.40;;;;;;5139405;27;20431;-46
2022/09/24 02:40:47;;;;;;;9.47;8.57;;;12.40;95.40;;;;;;5137980;27;20253;-45
2022/09/24 02:43:13;;;;;;;10.10;9.10;;;12.40;95.50;;;;;;5138562;27;20275;-46
2022/09/24 02:45:39;;;;;;;11.23;9.67;;;12.40;95.60;;;;;;5138935;27;20891;-44
2022/09/24 02:48:04;;;;;;;10.77;9.87;;;12.40;95.60;;;;;;5139090;27;20542;-44
2022/09/24 02:50:30;;;;;;;9.77;8.87;;;12.40;95.70;;;;;;5141045;27;20174;-44
2022/09/24 02:52:55;;;;;;;9.60;8.70;;;12.40;95.70;;;;;;5140946;27;20178;-44
2022/09/24 02:55:21;;;;;;;9.50;8.60;;;12.40;95.80;;;;;;5141000;27;20371;-43
2022/09/24 02:57:46;;;;;;;8.90;8.10;;;12.40;95.80;;;;;;5140750;27;20185;-45
2022/09/24 03:00:13;;;;;;;9.43;8.60;;;12.40;95.80;;;;;;5140019;27;20583;-44
2022/09/24 03:02:38;;;;;;;8.83;8.00;;;12.40;95.90;;;;;;5140927;27;20500;-44
2022/09/24 03:05:04;;;;;;;9.60;8.80;;;12.40;95.90;;;;;;5140449;27;20431;-46
2022/09/24 03:07:30;;;;;;;9.00;8.13;;;12.40;95.90;;;;;;5140434;27;20546;-45
2022/09/24 03:09:56;;;;;;;9.87;8.97;;;12.40;96.00;;;;;;5139335;27;20427;-43
2022/09/24 03:12:22;;;;;;;9.40;8.50;;;12.50;96.10;;;;;;5138318;27;20170;-47
2022/09/24 03:14:47;;;;;;;9.27;8.47;;;12.50;96.10;;;;;;5139145;27;20699;-43
2022/09/24 03:17:13;;;;;;;11.20;10.07;;;12.50;96.20;;;;;;5139622;27;20178;-43
2022/09/24 03:19:39;;;;;;;10.03;9.13;;;12.50;96.30;;;;;;5137356;27;20266;-46
2022/09/24 03:22:04;;;;;;;9.73;8.83;;;12.50;96.30;;;;;;5138079;27;20175;-44
2022/09/24 03:24:30;;;;;;;13.00;9.53;;;12.50;96.40;;;;;;5137702;27;20188;-44
2022/09/24 03:26:56;;;;;;;9.90;9.00;;;12.50;96.30;;;;;;5138038;27;20566;-44
2022/09/24 03:30:58;;;;;;;10.10;9.20;;;12.50;96.40;;;;;;5137472;27;20241;-45
2022/09/24 03:32:07;;;;;;;10.37;9.37;;;12.50;96.40;;;;;;5138185;27;20419;-44
2022/09/24 03:34:33;;;;;;;8.90;7.83;;;12.60;96.50;;;;;;5139095;27;20488;-47
2022/09/24 03:36:58;;;;;;;9.77;8.90;;;12.60;96.40;;;;;;5138953;27;20190;-46
2022/09/24 03:39:24;;;;;;;10.20;9.30;;;12.60;96.50;;;;;;5121466;27;20219;-45
2022/09/24 03:41:49;;;;;;;9.50;8.60;;;12.60;96.50;;;;;;5139400;27;20468;-49
2022/09/24 03:44:15;;;;;;;9.13;8.43;;;12.60;96.50;;;;;;5139733;27;20182;-44
2022/09/24 03:46:40;;;;;;;9.43;8.53;;;12.60;96.60;;;;;;5139587;27;20268;-43
2022/09/24 03:49:06;;;;;;;9.30;8.40;;;12.60;96.60;;;;;;5139158;27;20226;-44
2022/09/24 03:51:32;;;;;;;9.27;8.37;;;12.60;96.60;;;;;;5139480;27;20691;-44
2022/09/24 03:53:57;;;;;;;9.30;8.40;;;12.60;96.60;;;;;;5137861;27;20184;-47
2022/09/24 03:56:23;;;;;;;9.63;8.60;;;12.60;96.60;;;;;;5139977;27;20179;-45
2022/09/24 03:58:48;;;;;;;8.67;7.90;;;12.60;96.60;;;;;;5138843;27;20188;-43
2022/09/24 04:01:20;;;;;;;8.60;7.90;;;12.60;96.60;;;;;;5121730;27;20236;-44
2022/09/24 04:03:47;;;;;;;9.73;8.93;;;12.60;96.60;;;;;;5139332;27;20633;-48
2022/09/24 04:06:13;;;;;;;8.27;7.67;;;12.60;96.60;;;;;;5138544;27;20500;-45
2022/09/24 04:08:39;;;;;;;9.60;8.27;;;12.60;96.70;;;;;;5139815;27;20824;-45
2022/09/24 04:11:05;;;;;;;8.63;7.40;;;12.60;96.70;;;;;;5139144;27;20427;-47
2022/09/24 04:13:30;;;;;;;9.90;8.97;;;12.60;96.70;;;;;;5138638;27;20205;-46
2022/09/24 04:16:01;;;;;;;8.57;7.77;;;12.60;97.00;;;;;;5139274;27;20172;-44
2022/09/24 04:18:27;;;;;;;9.23;8.43;;;12.70;96.70;;;;;;5119014;27;20190;-43
2022/09/24 04:20:57;;;;;;;9.20;8.30;;;12.70;96.70;;;;;;5137819;27;20409;-47
2022/09/24 04:23:23;;;;;;;10.67;9.50;;;12.70;96.80;;;;;;5137197;27;20331;-43
2022/09/24 04:25:49;;;;;;;10.50;9.50;;;12.70;96.80;;;;;;5137384;27;20441;-44
2022/09/24 04:28:14;;;;;;;10.17;9.03;;;12.70;96.80;;;;;;5137080;27;20574;-46
2022/09/24 04:30:40;;;;;;;10.00;9.20;;;12.70;96.90;;;;;;5135800;27;20187;-47
2022/09/24 04:33:06;;;;;;;9.00;8.20;;;12.70;96.90;;;;;;5137661;27;20187;-45
2022/09/24 04:35:34;;;;;;;10.33;8.70;;;12.70;96.80;;;;;;5128372;27;20178;-46
2022/09/24 04:37:59;;;;;;;10.57;9.47;;;12.70;96.80;;;;;;5118319;28;20427;-46
2022/09/24 04:40:26;;;;;;;10.03;9.03;;;12.70;96.80;;;;;;5116700;28;20513;-44
2022/09/24 04:42:51;;;;;;;10.07;9.17;;;12.70;97.10;;;;;;5116889;28;20178;-43
2022/09/24 04:45:18;;;;;;;9.57;8.67;;;12.70;96.80;;;;;;5121513;27;20434;-43
2022/09/24 04:47:44;;;;;;;9.17;8.13;;;12.70;96.80;;;;;;5137192;27;20240;-44
2022/09/24 04:50:10;;;;;;;9.57;8.73;;;12.70;96.80;;;;;;5136353;27;20767;-47
2022/09/24 04:52:37;;;;;;;8.57;7.77;;;12.70;96.80;;;;;;5137141;27;20178;-44
2022/09/24 04:55:03;;;;;;;9.07;8.27;;;12.70;96.80;;;;;;5137199;27;20876;-45
2022/09/24 04:57:35;;;;;;;9.47;8.57;;;12.70;96.90;;;;;;5137283;27;20420;-44
2022/09/24 05:00:02;;;;;;;8.60;7.90;;;12.70;96.90;;;;;;5137015;27;20460;-45
2022/09/24 05:02:28;;;;;;;9.30;8.40;;;12.70;96.90;;;;;;5138046;27;20416;-45
2022/09/24 05:04:54;;;;;;;8.63;7.83;;;12.70;96.90;;;;;;5137972;27;20411;-46
2022/09/24 05:07:19;;;;;;;10.03;9.23;;;12.70;96.90;;;;;;5138357;27;20405;-45
2022/09/24 05:09:45;;;;;;;9.63;8.83;;;12.70;96.90;;;;;;5138184;27;20176;-48
2022/09/24 05:12:10;;;;;;;8.93;8.23;;;12.60;96.90;;;;;;5138127;27;20185;-45
2022/09/24 05:14:36;;;;;;;8.90;8.20;;;12.60;97.00;;;;;;5139004;28;20177;-44
2022/09/24 05:17:02;;;;;;;9.77;8.87;;;12.60;97.10;;;;;;5137224;28;20265;-45
2022/09/24 05:19:27;;;;;;;10.23;8.23;;;12.60;97.20;;;;;;5136289;28;20332;-45
2022/09/24 05:21:53;;;;;;;9.10;8.37;;;12.50;97.20;;;;;;5135915;28;20465;-43
2022/09/24 05:24:18;;;;;;;10.63;9.27;;;12.50;97.30;;;;;;5135279;28;20191;-46
2022/09/24 05:29:28;;;;;;;9.53;8.70;;;12.50;97.50;;;;;;5135448;28;20331;-45
2022/09/24 05:31:54;;;;;;;10.90;9.17;;;12.50;97.60;;;;;;5135906;28;20483;-45
2022/09/24 05:34:20;;;;;;;11.17;10.17;;;12.50;97.70;;;;;;5136224;28;20176;-43
2022/09/24 05:36:45;;;;;;;10.70;9.70;;;12.50;97.70;;;;;;5139111;27;20616;-47
2022/09/24 05:39:14;;;;;;;10.23;9.33;;;12.50;97.80;;;;;;5141745;27;20192;-45
2022/09/24 05:41:40;;;;;;;10.13;9.13;;;12.50;97.80;;;;;;5141126;27;20427;-43
2022/09/24 05:44:06;;;;;;;10.30;9.50;;;12.60;97.80;;;;;;5140033;27;20436;-46
2022/09/24 05:46:32;;;;;;;10.00;9.00;;;12.60;97.80;;;;;;5141572;27;20197;-43
2022/09/24 05:48:58;;;;;;;11.03;10.00;;;12.60;97.80;;;;;;5140921;27;20212;-47
2022/09/24 05:51:24;;;;;;;10.80;9.70;;;12.60;97.70;;;;;;5121828;27;20445;-42
2022/09/24 05:53:50;;;;;;;11.23;10.17;;;12.70;97.80;;;;;;5122783;27;20417;-42
2022/09/24 05:56:16;;;;;;;13.20;11.03;;;12.70;97.70;;;;;;5121794;27;20731;-46
2022/09/24 05:58:41;;;;;;;10.93;10.03;;;12.80;97.60;;;;;;5140437;27;20225;-44
2022/09/24 06:01:07;;;;;;;10.50;9.60;;;12.80;97.50;;;;;;5139551;27;20452;-43
2022/09/24 06:03:33;;;;;;;10.00;9.20;;;12.90;97.50;;;;;;5140090;27;20186;-46
2022/09/24 06:06:00;;;;;;;9.67;8.77;;;13.00;97.40;;;;;;5141418;27;20194;-42
2022/09/24 06:08:27;;;;;;;12.00;11.00;;;13.10;97.30;;;;;;5123290;27;20218;-42
2022/09/24 06:11:01;;;;;;;10.03;9.23;;;13.20;97.20;;;;;;5140152;27;20517;-44
2022/09/24 06:13:27;;;;;;;12.57;11.37;;;13.30;97.10;;;;;;5139362;27;20405;-47
2022/09/24 06:16:00;;;;;;;10.30;9.40;;;13.50;96.90;;;;;;5139746;27;20771;-45
2022/09/24 06:18:25;;;;;;;10.37;9.47;;;13.60;96.80;;;;;;5139534;27;20415;-45
2022/09/24 06:20:51;;;;;;;11.50;10.40;;;13.70;96.60;;;;;;5138831;27;20599;-45
2022/09/24 06:23:17;;;;;;;9.97;8.97;;;13.80;96.40;;;;;;5138643;27;20197;-45
2022/09/24 06:25:43;;;;;;;10.80;9.90;;;14.00;96.40;;;;;;5136999;27;20190;-48
2022/09/24 06:28:08;;;;;;;8.80;8.03;;;14.10;96.20;;;;;;5138026;27;20296;-45
2022/09/24 06:30:40;;;;;;;9.97;8.97;;;14.30;96.00;;;;;;5136176;27;20900;-45
2022/09/24 06:33:08;;;;;;;9.33;8.43;;;14.40;95.80;;;;;;5137898;27;20183;-41
2022/09/24 06:35:35;;;;;;;8.80;8.00;;;14.50;95.60;;;;;;5137907;27;20525;-45
2022/09/24 06:38:01;;;;;;;8.83;8.13;;;14.50;95.50;;;;;;5138098;27;20519;-42
2022/09/24 06:40:27;;;;;;;9.30;8.50;;;14.60;95.50;;;;;;5137683;27;20421;-46
2022/09/24 06:42:53;;;;;;;10.67;9.03;;;14.60;95.50;;;;;;5138504;27;20833;-44
2022/09/24 06:45:19;;;;;;;9.43;8.53;;;14.60;95.40;;;;;;5139333;27;20470;-43
2022/09/24 06:47:52;;;;;;;9.47;8.57;;;14.70;95.40;;;;;;5139278;27;20460;-44
2022/09/24 06:50:17;;;;;;;8.90;8.10;;;14.70;95.30;;;;;;5139426;27;20412;-45
2022/09/24 06:52:43;;;;;;;10.33;9.37;;;14.80;95.30;;;;;;5140350;27;20438;-44
2022/09/24 06:55:08;;;;;;;9.90;9.00;;;14.80;95.20;;;;;;5122279;27;20233;-44
2022/09/24 06:57:34;;;;;;;8.70;7.90;;;14.90;95.10;;;;;;5139422;27;20205;-44
2022/09/24 07:00:00;;;;;;;9.60;8.67;;;15.00;95.00;;;;;;5139680;27;20180;-45
2022/09/24 07:02:25;;;;;;;8.90;8.00;;;15.10;94.90;;;;;;5138150;27;20573;-44
2022/09/24 07:04:51;;;;;;;10.83;9.30;;;15.20;94.80;;;;;;5138699;27;20188;-46
2022/09/24 07:07:29;;;;;;;8.37;7.60;;;15.30;94.80;;;;;;5136586;27;20246;-44
2022/09/24 07:09:55;;;;;;;9.13;8.43;;;15.30;94.60;;;;;;5119756;27;20192;-44
2022/09/24 07:12:21;;;;;;;9.00;8.10;;;15.50;94.50;;;;;;5136886;27;20706;-44
2022/09/24 07:14:47;;;;;;;9.10;8.13;;;15.60;94.40;;;;;;5135258;27;20465;-42
2022/09/24 07:17:13;;;;;;;8.60;7.77;;;15.70;94.30;;;;;;5135542;27;20572;-45
2022/09/24 07:19:38;;;;;;;9.57;8.67;;;15.70;94.20;;;;;;5118559;27;20200;-45
2022/09/24 07:22:04;;;;;;;8.17;7.37;;;15.80;94.20;;;;;;5137815;27;20462;-45
2022/09/24 07:24:30;;;;;;;8.37;7.57;;;15.80;94.00;;;;;;5136332;27;20183;-43
2022/09/24 07:26:55;;;;;;;7.80;7.00;;;15.90;93.90;;;;;;5137528;27;20756;-46
2022/09/24 07:29:21;;;;;;;7.60;6.97;;;15.90;93.80;;;;;;5137788;27;20202;-44
2022/09/24 07:31:47;;;;;;;8.70;6.93;;;15.90;93.80;;;;;;5137252;27;20207;-46
2022/09/24 07:34:15;;;;;;;8.73;7.10;;;16.00;93.80;;;;;;5138515;27;20216;-42
2022/09/24 07:36:41;;;;;;;7.10;6.50;;;16.10;93.70;;;;;;5138255;27;20218;-45
2022/09/24 07:39:07;;;;;;;7.60;6.90;;;16.20;93.60;;;;;;5116835;27;20426;-44
2022/09/24 07:41:33;;;;;;;7.20;6.57;;;16.20;93.80;;;;;;5136702;27;20418;-46
2022/09/24 07:43:59;;;;;;;7.17;6.47;;;16.30;93.40;;;;;;5136327;27;20417;-43
2022/09/24 07:46:25;;;;;;;7.10;6.40;;;16.30;93.30;;;;;;5136120;27;20192;-46
2022/09/24 07:48:57;;;;;;;7.17;6.57;;;16.40;93.20;;;;;;5137116;27;20466;-47
2022/09/24 07:51:24;;;;;;;7.23;6.63;;;16.40;93.10;;;;;;5135446;27;20176;-43
2022/09/24 07:53:50;;;;;;;7.27;6.67;;;16.50;93.10;;;;;;5136963;27;20402;-48
2022/09/24 07:56:16;;;;;;;8.33;6.70;;;16.60;93.00;;;;;;5136668;27;20711;-44
2022/09/24 07:58:42;;;;;;;6.93;6.30;;;16.70;92.80;;;;;;5135192;27;20189;-44
2022/09/24 08:01:07;;;;;;;6.17;5.67;;;16.70;92.60;;;;;;5136127;27;20425;-46
2022/09/24 08:03:33;;;;;;;7.37;6.77;;;16.80;92.50;;;;;;5136152;27;20188;-42
2022/09/24 08:06:00;;;;;;;6.13;5.63;;;16.90;92.50;;;;;;5117645;27;20380;-46
2022/09/24 08:08:26;;;;;;;6.40;5.80;;;16.90;92.50;;;;;;5133893;27;20301;-45
2022/09/24 08:10:52;;;;;;;5.40;5.00;;;16.90;92.40;;;;;;5133223;27;20685;-43
2022/09/24 08:13:18;;;;;;;5.33;4.83;;;17.00;92.40;;;;;;5117663;27;20426;-44
2022/09/24 08:15:43;;;;;;;6.20;5.67;;;17.00;92.40;;;;;;5136588;27;20169;-47
2022/09/24 08:18:09;;;;;;;6.23;5.73;;;17.00;92.30;;;;;;5136511;27;20189;-44
2022/09/24 08:20:36;;;;;;;6.50;5.87;;;16.90;92.30;;;;;;5117362;27;20181;-44
2022/09/24 08:23:08;;;;;;;5.63;5.13;;;16.90;92.40;;;;;;5137820;27;20468;-46
2022/09/24 08:25:35;;;;;;;5.63;5.23;;;16.90;92.50;;;;;;5135630;27;20437;-45
2022/09/24 08:28:02;;;;;;;6.23;5.63;;;16.80;92.60;;;;;;5134252;27;20459;-42
2022/09/24 08:30:28;;;;;;;5.67;5.27;;;16.80;92.70;;;;;;5134275;27;20841;-47
2022/09/24 08:32:55;;;;;;;5.33;4.80;;;16.70;92.90;;;;;;5135990;27;20426;-43
2022/09/24 08:35:20;;;;;;;5.60;5.10;;;16.70;93.00;;;;;;5134931;27;20420;-44
2022/09/24 08:37:46;;;;;;;5.43;4.93;;;16.80;93.00;;;;;;5136412;27;20420;-45
2022/09/24 08:40:17;;;;;;;5.73;5.33;;;16.90;93.10;;;;;;5116117;27;20214;-48
2022/09/24 08:43:15;;;;;;;5.80;5.20;;;17.00;93.10;;;;;;5116646;27;20193;-44
2022/09/24 08:48:33;;;;;;;5.77;5.27;;;17.10;93.30;;;;;;5134682;27;20892;-44
2022/09/24 08:51:04;;;;;;;5.77;5.27;;;17.20;93.00;;;;;;5116907;27;20501;-46
2022/09/24 08:53:48;;;;;;;6.83;5.20;;;17.30;93.00;;;;;;5117424;27;20435;-45
2022/09/24 08:56:18;;;;;;;5.87;5.37;;;17.40;93.10;;;;;;5115410;27;21003;-44
2022/09/24 08:58:48;;;;;;;6.10;5.60;;;17.40;93.20;;;;;;5116857;27;20875;-46
2022/09/24 09:01:33;;;;;;;5.27;4.87;;;17.50;93.30;;;;;;5101157;27;20455;-42
2022/09/24 09:04:05;;;;;;;4.50;4.10;;;17.50;93.30;;;;;;5136310;27;20490;-45
2022/09/24 09:07:07;;;;;;;7.97;4.93;;;17.60;93.40;;;;;;5133980;27;20438;-43
2022/09/24 09:09:45;;;;;;;5.57;5.07;;;17.60;93.50;;;;;;5133444;27;20460;-44
2022/09/24 09:12:41;;;;;;;6.57;5.13;;;17.60;93.60;;;;;;5132608;27;20767;-45
2022/09/24 09:15:13;;;;;;;4.33;4.03;;;17.70;93.80;;;;;;5113300;28;20446;-47
2022/09/24 09:17:45;;;;;;;6.90;4.40;;;17.80;93.90;;;;;;5113343;28;20522;-45
2022/09/24 09:20:16;;;;;;;4.57;4.17;;;17.90;93.90;;;;;;5131816;28;20422;-41
2022/09/24 09:22:46;;;;;;;4.40;4.00;;;18.00;93.90;;;;;;5114795;28;20519;-46
2022/09/24 09:25:25;;;;;;;4.43;4.03;;;18.20;93.80;;;;;;5132988;28;20667;-47
2022/09/24 09:28:13;;;;;;;4.90;4.50;;;18.30;93.60;;;;;;5116326;28;20470;-48
2022/09/24 09:30:55;;;;;;;4.10;3.67;;;18.50;93.40;;;;;;5133253;28;20596;-47
2022/09/24 09:33:21;;;;;;;4.77;4.37;;;18.60;93.30;;;;;;5135280;28;20691;-45
2022/09/24 09:35:54;;;;;;;5.40;4.77;;;18.70;93.20;;;;;;5129854;28;20440;-43
2022/09/24 09:38:22;;;;;;;5.50;5.00;;;18.70;93.00;;;;;;5122032;28;20512;-47
2022/09/24 09:40:58;;;;;;;6.83;5.67;;;18.70;93.00;;;;;;5118100;28;20434;-46
2022/09/24 09:43:25;;;;;;;6.03;5.53;;;18.70;92.90;;;;;;5117608;28;20434;-47
2022/09/24 09:46:22;;;;;;;4.90;4.50;;;18.80;93.00;;;;;;5134747;28;20436;-47
2022/09/24 09:48:53;;;;;;;5.10;4.70;;;18.90;93.00;;;;;;5116418;28;20820;-47
2022/09/24 09:51:21;;;;;;;5.27;4.77;;;19.10;92.90;;;;;;5114924;28;20444;-46
2022/09/24 09:53:56;;;;;;;6.80;4.97;;;19.30;92.80;;;;;;5135412;28;20707;-45
2022/09/24 09:56:27;;;;;;;5.83;5.10;;;19.50;92.60;;;;;;5117084;28;20430;-47
2022/09/24 09:59:13;;;;;;;6.50;5.57;;;19.70;92.30;;;;;;5135944;28;20444;-47
2022/09/24 10:01:45;;;;;;;5.00;4.50;;;19.90;92.00;;;;;;5117089;28;20612;-45
2022/09/24 10:04:32;;;;;;;4.50;4.10;;;19.90;91.80;;;;;;5117357;28;20460;-45
2022/09/24 10:07:15;;;;;;;4.90;4.50;;;19.80;91.80;;;;;;5133666;28;20408;-45
2022/09/24 10:09:42;;;;;;;8.30;7.50;;;19.70;91.90;;;;;;5116060;28;20466;-47
2022/09/24 10:12:21;;;;;;;9.53;8.70;;;19.60;91.80;;;;;;5115700;28;21052;-47
2022/09/24 10:14:56;;;;;;;9.30;8.50;;;19.40;91.90;;;;;;5135051;28;20615;-46
2022/09/24 10:17:26;;;;;;;7.63;6.80;;;19.20;92.10;;;;;;5133856;28;20881;-45
2022/09/24 10:19:53;;;;;;;6.67;6.17;;;18.90;92.40;;;;;;5134719;28;20414;-45
2022/09/24 10:22:25;;;;;;;6.10;5.60;;;18.70;92.70;;;;;;5128505;27;20736;-43
2022/09/24 10:24:53;;;;;;;4.80;4.40;;;18.50;93.10;;;;;;5127017;27;20433;-44
2022/09/24 10:27:27;;;;;;;6.07;5.47;;;18.30;93.40;;;;;;5111206;27;20854;-44
2022/09/24 10:32:38;;;;;;;4.97;4.57;;;18.10;94.10;;;;;;5118195;27;20429;-43
2022/09/24 10:35:22;;;;;;;4.00;3.70;;;18.00;94.40;;;;;;5107972;28;20436;-46
2022/09/24 10:37:56;;;;;;;4.70;4.30;;;18.10;94.60;;;;;;5118227;27;20424;-47
2022/09/24 10:40:30;;;;;;;2.90;2.47;;;18.10;94.70;;;;;;5119764;28;20435;-48
2022/09/24 10:43:00;;;;;;;2.13;1.93;;;18.30;94.50;;;;;;5100364;28;20419;-49
2022/09/24 10:45:50;;;;;;;3.50;2.30;;;18.60;93.90;;;;;;5114064;28;20429;-48
2022/09/24 10:48:23;;;;;;;4.00;2.30;;;19.00;93.20;;;;;;5117583;28;20709;-47
2022/09/24 10:50:57;;;;;;;3.10;2.80;;;19.40;92.40;;;;;;5099942;28;20511;-48
2022/09/24 10:53:46;;;;;;;3.73;2.97;;;19.80;91.70;;;;;;5118203;28;20499;-48
2022/09/24 10:56:28;;;;;;;3.93;3.50;;;20.40;91.00;;;;;;5082709;28;20543;-47
2022/09/24 10:58:59;;;;;;;5.00;2.90;;;21.00;90.40;;;;;;5118172;28;20462;-48
2022/09/24 11:01:43;;;;;;;3.40;2.93;;;21.60;89.40;;;;;;5117587;28;20423;-50
2022/09/24 11:04:09;;;;;;;5.73;3.70;;;22.10;87.60;;;;;;5101176;28;20446;-51
2022/09/24 11:06:37;;;;;;;4.27;3.87;;;22.50;85.80;;;;;;5118150;28;20783;-48
2022/09/24 11:09:22;;;;;;;4.43;4.03;;;22.80;84.50;;;;;;5117892;28;20233;-49
2022/09/24 11:12:20;;;;;;;3.60;3.30;;;23.10;82.80;;;;;;5099271;28;20422;-50
2022/09/24 11:15:18;;;;;;;4.20;3.43;;;23.20;82.40;;;;;;5097825;28;20565;-51
2022/09/24 11:18:02;;;;;;;3.93;3.60;;;23.30;81.30;;;;;;5030855;28;20424;-47
2022/09/24 11:20:31;;;;;;;4.47;4.07;;;23.30;80.90;;;;;;5115952;28;20413;-50
2022/09/24 11:23:06;;;;;;;4.93;4.40;;;23.30;80.40;;;;;;5117791;28;20770;-54
2022/09/24 11:25:41;;;;;;;4.90;4.50;;;23.40;80.60;;;;;;5117526;28;20906;-48
2022/09/24 11:28:36;;;;;;;4.13;3.80;;;23.40;80.70;;;;;;5099412;28;20750;-47
2022/09/24 11:31:20;;;;;;;4.53;3.93;;;23.50;80.60;;;;;;5118189;28;20421;-50
2022/09/24 11:34:03;;;;;;;4.30;3.90;;;23.90;79.70;;;;;;5114915;28;20445;-48
2022/09/24 11:36:56;;;;;;;4.70;4.30;;;24.30;78.20;;;;;;5100064;28;20410;-48
2022/09/24 11:39:30;;;;;;;4.80;4.40;;;24.60;77.00;;;;;;5100215;28;20409;-48
2022/09/24 11:42:15;;;;;;;4.43;3.40;;;24.60;76.00;;;;;;5116093;28;20409;-46
2022/09/24 11:44:53;;;;;;;4.83;4.40;;;24.40;75.90;;;;;;5116424;28;20432;-47
2022/09/24 11:47:43;;;;;;;4.97;4.47;;;24.00;76.60;;;;;;5126244;27;20427;-44
2022/09/24 11:50:35;;;;;;;4.23;3.87;;;23.50;77.70;;;;;;5128194;27;20419;-43
2022/09/24 11:53:18;;;;;;;5.00;4.60;;;23.00;78.70;;;;;;5125662;27;20420;-46
2022/09/24 11:55:52;;;;;;;5.00;4.37;;;22.70;80.20;;;;;;5108238;27;20969;-46
2022/09/24 11:58:31;;;;;;;4.70;4.27;;;22.40;80.90;;;;;;5125866;27;20535;-44
2022/09/24 12:01:04;;;;;;;4.03;3.70;;;22.20;82.20;;;;;;5108404;27;20510;-45
2022/09/24 12:03:51;;;;;;;5.30;4.80;;;22.00;82.90;;;;;;5136168;27;20427;-44
2022/09/24 12:06:20;;;;;;;5.07;4.40;;;22.00;83.60;;;;;;5139181;27;20413;-43
2022/09/24 12:08:57;;;;;;;5.03;4.63;;;21.90;83.90;;;;;;5135709;27;20596;-47
2022/09/24 12:11:40;;;;;;;5.03;4.13;;;21.90;84.30;;;;;;5134942;27;20408;-48
2022/09/24 12:14:24;;;;;;;4.60;4.20;;;21.80;84.50;;;;;;5136526;27;20512;-43
2022/09/24 12:16:53;;;;;;;4.53;4.13;;;21.70;84.70;;;;;;5118481;27;20423;-44
2022/09/24 12:19:28;;;;;;;4.30;3.90;;;21.50;85.20;;;;;;5118111;27;20423;-47
2022/09/24 12:21:57;;;;;;;3.90;3.60;;;21.30;85.70;;;;;;5099562;27;20424;-47
2022/09/24 12:25:01;;;;;;;4.30;3.90;;;21.10;86.20;;;;;;5117904;27;20436;-45
2022/09/24 12:27:34;;;;;;;4.23;3.83;;;20.90;86.90;;;;;;5030634;28;20421;-43
2022/09/24 12:33:06;;;;;;;4.83;4.43;;;20.60;87.80;;;;;;5099133;27;20503;-45
2022/09/24 12:36:11;;;;;;;4.23;3.93;;;20.50;88.70;;;;;;5112406;27;20438;-44
2022/09/24 12:39:01;;;;;;;4.60;4.20;;;20.50;89.50;;;;;;5134939;27;20402;-44
2022/09/24 12:41:43;;;;;;;5.40;5.00;;;20.50;89.90;;;;;;5115555;27;20448;-43
2022/09/24 12:44:09;;;;;;;4.73;4.33;;;20.50;90.00;;;;;;5113148;27;20424;-43
2022/09/24 12:46:39;;;;;;;4.80;4.40;;;20.50;90.10;;;;;;5131905;27;20405;-43
2022/09/24 12:49:28;;;;;;;4.70;4.30;;;20.50;90.20;;;;;;5121240;27;20594;-44
2022/09/24 12:51:56;;;;;;;4.50;4.10;;;20.40;90.20;;;;;;5135858;27;20426;-44
2022/09/24 12:54:26;;;;;;;4.17;3.77;;;20.40;90.30;;;;;;5135634;27;20495;-45
2022/09/24 12:57:03;;;;;;;4.20;3.90;;;20.40;90.40;;;;;;5132217;27;20401;-47
2022/09/24 12:59:28;;;;;;;5.07;4.67;;;20.40;90.50;;;;;;5133734;27;20422;-46
2022/09/24 13:02:06;;;;;;;5.10;4.63;;;20.30;90.70;;;;;;5133008;27;20412;-43
2022/09/24 13:04:32;;;;;;;5.03;4.53;;;20.20;90.80;;;;;;5130689;27;20179;-45
2022/09/24 13:06:57;;;;;;;4.73;4.33;;;20.10;90.90;;;;;;5130457;27;20423;-44
2022/09/24 13:09:23;;;;;;;5.20;4.70;;;20.00;91.10;;;;;;5133792;27;20494;-43
2022/09/24 13:11:48;;;;;;;5.07;4.67;;;19.90;91.30;;;;;;5134980;27;20417;-46
2022/09/24 13:14:14;;;;;;;4.87;4.47;;;19.80;91.30;;;;;;5116716;27;20285;-47
2022/09/24 13:16:42;;;;;;;4.83;4.23;;;19.80;91.50;;;;;;5136627;27;20166;-48